sensor_id;sensor_type;location;lat;lon;timestamp;P1;durP1;ratioP1;P2;durP2;ratioP2
28519;SDS011;15732;48.534;20.382;2022-11-27T00:01:30;17.77;;;8.25;;
28519;SDS011;15732;48.534;20.382;2022-11-27T00:04:04;23.02;;;7.53;;
28519;SDS011;15732;48.534;20.382;2022-11-27T00:08:59;16.88;;;7.65;;
28519;SDS011;15732;48.534;20.382;2022-11-27T00:11:29;18.48;;;8.40;;
28519;SDS011;15732;48.534;20.382;2022-11-27T00:13:57;11.55;;;5.22;;
28519;SDS011;15732;48.534;20.382;2022-11-27T00:16:25;21.60;;;8.67;;
28519;SDS011;15732;48.534;20.382;2022-11-27T00:18:53;18.45;;;7.07;;
28519;SDS011;15732;48.534;20.382;2022-11-27T00:21:21;21.92;;;8.57;;
28519;SDS011;15732;48.534;20.382;2022-11-27T00:23:50;19.80;;;8.18;;
28519;SDS011;15732;48.534;20.382;2022-11-27T00:26:19;19.05;;;8.43;;
28519;SDS011;15732;48.534;20.382;2022-11-27T00:28:46;23.52;;;8.38;;
28519;SDS011;15732;48.534;20.382;2022-11-27T00:31:14;22.75;;;8.73;;
28519;SDS011;15732;48.534;20.382;2022-11-27T00:33:45;22.38;;;8.27;;
28519;SDS011;15732;48.534;20.382;2022-11-27T00:36:13;18.50;;;8.13;;
28519;SDS011;15732;48.534;20.382;2022-11-27T00:38:40;19.85;;;9.02;;
28519;SDS011;15732;48.534;20.382;2022-11-27T00:41:08;17.10;;;9.38;;
28519;SDS011;15732;48.534;20.382;2022-11-27T00:43:39;19.65;;;8.50;;
28519;SDS011;15732;48.534;20.382;2022-11-27T00:46:07;16.17;;;8.60;;
28519;SDS011;15732;48.534;20.382;2022-11-27T00:48:34;19.17;;;9.00;;
28519;SDS011;15732;48.534;20.382;2022-11-27T00:51:03;22.05;;;7.97;;
28519;SDS011;15732;48.534;20.382;2022-11-27T00:53:31;20.85;;;8.50;;
28519;SDS011;15732;48.534;20.382;2022-11-27T00:55:59;20.80;;;7.18;;
28519;SDS011;15732;48.534;20.382;2022-11-27T00:58:25;14.00;;;6.47;;
28519;SDS011;15732;48.534;20.382;2022-11-27T01:00:53;19.23;;;8.10;;
28519;SDS011;15732;48.534;20.382;2022-11-27T01:03:34;21.73;;;8.35;;
28519;SDS011;15732;48.534;20.382;2022-11-27T01:06:04;28.60;;;8.25;;
28519;SDS011;15732;48.534;20.382;2022-11-27T01:08:33;19.52;;;8.48;;
28519;SDS011;15732;48.534;20.382;2022-11-27T01:11:00;23.48;;;9.10;;
28519;SDS011;15732;48.534;20.382;2022-11-27T01:13:30;18.17;;;9.23;;
28519;SDS011;15732;48.534;20.382;2022-11-27T01:18:31;14.52;;;7.22;;
28519;SDS011;15732;48.534;20.382;2022-11-27T01:20:59;18.90;;;7.97;;
28519;SDS011;15732;48.534;20.382;2022-11-27T01:23:26;15.85;;;8.50;;
28519;SDS011;15732;48.534;20.382;2022-11-27T01:25:53;25.73;;;9.48;;
28519;SDS011;15732;48.534;20.382;2022-11-27T01:28:21;25.15;;;9.98;;
28519;SDS011;15732;48.534;20.382;2022-11-27T01:33:16;31.52;;;10.20;;
28519;SDS011;15732;48.534;20.382;2022-11-27T01:35:56;26.20;;;9.48;;
28519;SDS011;15732;48.534;20.382;2022-11-27T01:38:25;30.20;;;9.27;;
28519;SDS011;15732;48.534;20.382;2022-11-27T01:40:56;34.58;;;9.85;;
28519;SDS011;15732;48.534;20.382;2022-11-27T01:43:37;31.63;;;11.75;;
28519;SDS011;15732;48.534;20.382;2022-11-27T01:46:30;30.15;;;10.52;;
28519;SDS011;15732;48.534;20.382;2022-11-27T01:51:55;28.75;;;10.77;;
28519;SDS011;15732;48.534;20.382;2022-11-27T01:54:32;19.23;;;8.57;;
28519;SDS011;15732;48.534;20.382;2022-11-27T01:57:07;21.92;;;8.48;;
28519;SDS011;15732;48.534;20.382;2022-11-27T01:59:38;24.83;;;9.23;;
28519;SDS011;15732;48.534;20.382;2022-11-27T02:02:05;30.67;;;9.82;;
28519;SDS011;15732;48.534;20.382;2022-11-27T02:04:32;18.50;;;8.48;;
28519;SDS011;15732;48.534;20.382;2022-11-27T02:07:00;21.40;;;7.50;;
28519;SDS011;15732;48.534;20.382;2022-11-27T02:09:27;21.80;;;9.10;;
28519;SDS011;15732;48.534;20.382;2022-11-27T02:12:08;26.33;;;9.25;;
28519;SDS011;15732;48.534;20.382;2022-11-27T02:17:36;18.83;;;7.43;;
28519;SDS011;15732;48.534;20.382;2022-11-27T02:23:15;21.57;;;9.10;;
28519;SDS011;15732;48.534;20.382;2022-11-27T02:29:11;20.05;;;8.27;;
28519;SDS011;15732;48.534;20.382;2022-11-27T02:40:11;18.90;;;9.05;;
28519;SDS011;15732;48.534;20.382;2022-11-27T02:42:42;24.42;;;8.50;;
28519;SDS011;15732;48.534;20.382;2022-11-27T02:45:14;24.95;;;8.75;;
28519;SDS011;15732;48.534;20.382;2022-11-27T02:47:48;25.92;;;8.20;;
28519;SDS011;15732;48.534;20.382;2022-11-27T02:50:18;18.98;;;8.38;;
28519;SDS011;15732;48.534;20.382;2022-11-27T02:52:47;23.95;;;7.50;;
28519;SDS011;15732;48.534;20.382;2022-11-27T02:55:17;22.70;;;8.25;;
28519;SDS011;15732;48.534;20.382;2022-11-27T02:57:48;21.92;;;7.85;;
28519;SDS011;15732;48.534;20.382;2022-11-27T03:00:19;24.33;;;9.43;;
28519;SDS011;15732;48.534;20.382;2022-11-27T03:02:51;22.50;;;9.05;;
28519;SDS011;15732;48.534;20.382;2022-11-27T03:05:27;19.85;;;8.25;;
28519;SDS011;15732;48.534;20.382;2022-11-27T03:08:09;18.33;;;8.07;;
28519;SDS011;15732;48.534;20.382;2022-11-27T03:10:47;21.27;;;7.88;;
28519;SDS011;15732;48.534;20.382;2022-11-27T03:13:16;26.52;;;8.23;;
28519;SDS011;15732;48.534;20.382;2022-11-27T03:15:48;14.10;;;6.30;;
28519;SDS011;15732;48.534;20.382;2022-11-27T03:18:36;24.63;;;8.68;;
28519;SDS011;15732;48.534;20.382;2022-11-27T03:23:59;27.08;;;8.77;;
28519;SDS011;15732;48.534;20.382;2022-11-27T03:26:26;43.53;;;13.80;;
28519;SDS011;15732;48.534;20.382;2022-11-27T03:28:54;31.50;;;12.35;;
28519;SDS011;15732;48.534;20.382;2022-11-27T03:31:23;26.35;;;10.05;;
28519;SDS011;15732;48.534;20.382;2022-11-27T03:33:51;14.27;;;7.68;;
28519;SDS011;15732;48.534;20.382;2022-11-27T03:36:23;29.75;;;11.15;;
28519;SDS011;15732;48.534;20.382;2022-11-27T03:38:50;23.80;;;11.07;;
28519;SDS011;15732;48.534;20.382;2022-11-27T03:43:55;22.55;;;9.65;;
28519;SDS011;15732;48.534;20.382;2022-11-27T03:49:32;22.40;;;9.57;;
28519;SDS011;15732;48.534;20.382;2022-11-27T03:52:31;18.35;;;8.10;;
28519;SDS011;15732;48.534;20.382;2022-11-27T03:55:25;23.00;;;9.60;;
28519;SDS011;15732;48.534;20.382;2022-11-27T03:58:10;16.98;;;7.75;;
28519;SDS011;15732;48.534;20.382;2022-11-27T04:00:44;25.70;;;9.50;;
28519;SDS011;15732;48.534;20.382;2022-11-27T04:03:22;22.95;;;9.63;;
28519;SDS011;15732;48.534;20.382;2022-11-27T04:05:51;19.58;;;7.65;;
28519;SDS011;15732;48.534;20.382;2022-11-27T04:08:18;25.42;;;7.28;;
28519;SDS011;15732;48.534;20.382;2022-11-27T04:10:45;31.38;;;9.52;;
28519;SDS011;15732;48.534;20.382;2022-11-27T04:13:13;17.70;;;8.63;;
28519;SDS011;15732;48.534;20.382;2022-11-27T04:15:44;14.70;;;7.75;;
28519;SDS011;15732;48.534;20.382;2022-11-27T04:18:11;32.20;;;12.80;;
28519;SDS011;15732;48.534;20.382;2022-11-27T04:20:39;32.38;;;12.27;;
28519;SDS011;15732;48.534;20.382;2022-11-27T04:23:06;36.78;;;10.00;;
28519;SDS011;15732;48.534;20.382;2022-11-27T04:25:38;27.00;;;9.38;;
28519;SDS011;15732;48.534;20.382;2022-11-27T04:28:05;20.70;;;7.80;;
28519;SDS011;15732;48.534;20.382;2022-11-27T04:30:32;33.25;;;9.15;;
28519;SDS011;15732;48.534;20.382;2022-11-27T04:33:03;22.63;;;9.10;;
28519;SDS011;15732;48.534;20.382;2022-11-27T04:35:34;26.10;;;10.57;;
28519;SDS011;15732;48.534;20.382;2022-11-27T04:38:05;25.10;;;10.88;;
28519;SDS011;15732;48.534;20.382;2022-11-27T04:40:32;21.35;;;6.88;;
28519;SDS011;15732;48.534;20.382;2022-11-27T04:42:59;21.00;;;8.15;;
28519;SDS011;15732;48.534;20.382;2022-11-27T04:45:31;23.27;;;9.38;;
28519;SDS011;15732;48.534;20.382;2022-11-27T04:47:57;14.90;;;7.07;;
28519;SDS011;15732;48.534;20.382;2022-11-27T04:50:24;18.70;;;8.32;;
28519;SDS011;15732;48.534;20.382;2022-11-27T04:52:51;16.55;;;8.18;;
28519;SDS011;15732;48.534;20.382;2022-11-27T04:55:18;22.88;;;10.13;;
28519;SDS011;15732;48.534;20.382;2022-11-27T04:57:49;27.20;;;10.15;;
28519;SDS011;15732;48.534;20.382;2022-11-27T05:00:17;24.50;;;11.30;;
28519;SDS011;15732;48.534;20.382;2022-11-27T05:05:12;20.27;;;8.77;;
28519;SDS011;15732;48.534;20.382;2022-11-27T05:07:40;27.63;;;9.85;;
28519;SDS011;15732;48.534;20.382;2022-11-27T05:10:07;27.27;;;10.13;;
28519;SDS011;15732;48.534;20.382;2022-11-27T05:12:35;13.27;;;8.20;;
28519;SDS011;15732;48.534;20.382;2022-11-27T05:15:03;16.55;;;7.13;;
28519;SDS011;15732;48.534;20.382;2022-11-27T05:17:32;17.00;;;7.88;;
28519;SDS011;15732;48.534;20.382;2022-11-27T05:20:04;22.92;;;7.82;;
28519;SDS011;15732;48.534;20.382;2022-11-27T05:22:34;16.77;;;8.13;;
28519;SDS011;15732;48.534;20.382;2022-11-27T05:25:01;23.50;;;10.18;;
28519;SDS011;15732;48.534;20.382;2022-11-27T05:27:29;28.98;;;11.23;;
28519;SDS011;15732;48.534;20.382;2022-11-27T05:29:56;23.05;;;9.75;;
28519;SDS011;15732;48.534;20.382;2022-11-27T05:32:24;19.73;;;9.00;;
28519;SDS011;15732;48.534;20.382;2022-11-27T05:34:55;42.60;;;10.88;;
28519;SDS011;15732;48.534;20.382;2022-11-27T05:37:22;25.63;;;8.80;;
28519;SDS011;15732;48.534;20.382;2022-11-27T05:39:49;22.48;;;9.60;;
28519;SDS011;15732;48.534;20.382;2022-11-27T05:42:16;22.33;;;10.00;;
28519;SDS011;15732;48.534;20.382;2022-11-27T05:44:44;22.60;;;8.00;;
28519;SDS011;15732;48.534;20.382;2022-11-27T05:47:11;31.02;;;9.27;;
28519;SDS011;15732;48.534;20.382;2022-11-27T05:49:38;19.25;;;7.80;;
28519;SDS011;15732;48.534;20.382;2022-11-27T05:52:05;25.25;;;8.95;;
28519;SDS011;15732;48.534;20.382;2022-11-27T05:54:37;21.48;;;9.30;;
28519;SDS011;15732;48.534;20.382;2022-11-27T05:57:04;26.25;;;9.27;;
28519;SDS011;15732;48.534;20.382;2022-11-27T05:59:36;16.90;;;8.00;;
28519;SDS011;15732;48.534;20.382;2022-11-27T06:02:03;22.45;;;8.07;;
28519;SDS011;15732;48.534;20.382;2022-11-27T06:04:34;18.85;;;9.13;;
28519;SDS011;15732;48.534;20.382;2022-11-27T06:07:05;22.60;;;8.10;;
28519;SDS011;15732;48.534;20.382;2022-11-27T06:09:32;23.10;;;9.27;;
28519;SDS011;15732;48.534;20.382;2022-11-27T06:12:03;19.48;;;7.97;;
28519;SDS011;15732;48.534;20.382;2022-11-27T06:14:31;20.13;;;9.75;;
28519;SDS011;15732;48.534;20.382;2022-11-27T06:17:00;19.45;;;9.52;;
28519;SDS011;15732;48.534;20.382;2022-11-27T06:19:31;30.55;;;11.25;;
28519;SDS011;15732;48.534;20.382;2022-11-27T06:22:03;19.98;;;8.15;;
28519;SDS011;15732;48.534;20.382;2022-11-27T06:24:30;32.53;;;8.98;;
28519;SDS011;15732;48.534;20.382;2022-11-27T06:26:57;20.58;;;9.35;;
28519;SDS011;15732;48.534;20.382;2022-11-27T06:29:27;33.15;;;10.88;;
28519;SDS011;15732;48.534;20.382;2022-11-27T06:31:54;18.65;;;8.20;;
28519;SDS011;15732;48.534;20.382;2022-11-27T06:34:21;17.40;;;7.57;;
28519;SDS011;15732;48.534;20.382;2022-11-27T06:36:52;20.13;;;7.95;;
28519;SDS011;15732;48.534;20.382;2022-11-27T06:39:19;30.20;;;9.25;;
28519;SDS011;15732;48.534;20.382;2022-11-27T06:41:47;17.83;;;7.57;;
28519;SDS011;15732;48.534;20.382;2022-11-27T06:44:14;16.67;;;7.72;;
28519;SDS011;15732;48.534;20.382;2022-11-27T06:46:41;16.55;;;8.13;;
28519;SDS011;15732;48.534;20.382;2022-11-27T06:49:12;23.48;;;8.43;;
28519;SDS011;15732;48.534;20.382;2022-11-27T06:51:43;31.40;;;10.25;;
28519;SDS011;15732;48.534;20.382;2022-11-27T06:54:15;19.88;;;8.77;;
28519;SDS011;15732;48.534;20.382;2022-11-27T06:56:42;23.77;;;9.50;;
28519;SDS011;15732;48.534;20.382;2022-11-27T06:59:09;17.15;;;8.20;;
28519;SDS011;15732;48.534;20.382;2022-11-27T07:01:44;17.48;;;6.93;;
28519;SDS011;15732;48.534;20.382;2022-11-27T07:04:12;16.67;;;8.02;;
28519;SDS011;15732;48.534;20.382;2022-11-27T07:06:40;24.10;;;9.80;;
28519;SDS011;15732;48.534;20.382;2022-11-27T07:09:08;18.25;;;8.52;;
28519;SDS011;15732;48.534;20.382;2022-11-27T07:11:37;17.60;;;8.67;;
28519;SDS011;15732;48.534;20.382;2022-11-27T07:14:08;23.55;;;8.15;;
28519;SDS011;15732;48.534;20.382;2022-11-27T07:16:35;16.85;;;7.43;;
28519;SDS011;15732;48.534;20.382;2022-11-27T07:19:04;24.33;;;10.43;;
28519;SDS011;15732;48.534;20.382;2022-11-27T07:21:32;20.35;;;8.52;;
28519;SDS011;15732;48.534;20.382;2022-11-27T07:24:01;15.73;;;7.57;;
28519;SDS011;15732;48.534;20.382;2022-11-27T07:26:29;29.33;;;8.88;;
28519;SDS011;15732;48.534;20.382;2022-11-27T07:28:56;23.45;;;10.23;;
28519;SDS011;15732;48.534;20.382;2022-11-27T07:31:26;19.33;;;8.75;;
28519;SDS011;15732;48.534;20.382;2022-11-27T07:33:54;19.63;;;8.43;;
28519;SDS011;15732;48.534;20.382;2022-11-27T07:36:23;26.75;;;10.50;;
28519;SDS011;15732;48.534;20.382;2022-11-27T07:38:56;21.70;;;9.30;;
28519;SDS011;15732;48.534;20.382;2022-11-27T07:41:23;22.80;;;11.82;;
28519;SDS011;15732;48.534;20.382;2022-11-27T07:43:50;30.95;;;12.52;;
28519;SDS011;15732;48.534;20.382;2022-11-27T07:46:18;25.98;;;11.02;;
28519;SDS011;15732;48.534;20.382;2022-11-27T07:48:46;24.02;;;12.13;;
28519;SDS011;15732;48.534;20.382;2022-11-27T07:51:14;23.88;;;10.88;;
28519;SDS011;15732;48.534;20.382;2022-11-27T07:53:44;21.50;;;9.32;;
28519;SDS011;15732;48.534;20.382;2022-11-27T07:56:16;21.15;;;8.73;;
28519;SDS011;15732;48.534;20.382;2022-11-27T07:58:43;15.67;;;7.63;;
28519;SDS011;15732;48.534;20.382;2022-11-27T08:01:12;28.42;;;9.85;;
28519;SDS011;15732;48.534;20.382;2022-11-27T08:03:41;27.92;;;10.02;;
28519;SDS011;15732;48.534;20.382;2022-11-27T08:06:13;25.00;;;8.83;;
28519;SDS011;15732;48.534;20.382;2022-11-27T08:08:41;22.80;;;9.10;;
28519;SDS011;15732;48.534;20.382;2022-11-27T08:11:42;22.25;;;9.13;;
28519;SDS011;15732;48.534;20.382;2022-11-27T08:14:03;24.48;;;10.68;;
28519;SDS011;15732;48.534;20.382;2022-11-27T08:16:31;20.67;;;9.88;;
28519;SDS011;15732;48.534;20.382;2022-11-27T08:19:00;29.38;;;9.40;;
28519;SDS011;15732;48.534;20.382;2022-11-27T08:21:28;25.77;;;10.63;;
28519;SDS011;15732;48.534;20.382;2022-11-27T08:23:55;24.92;;;10.18;;
28519;SDS011;15732;48.534;20.382;2022-11-27T08:26:23;31.40;;;9.60;;
28519;SDS011;15732;48.534;20.382;2022-11-27T08:28:52;20.42;;;9.23;;
28519;SDS011;15732;48.534;20.382;2022-11-27T08:31:19;24.40;;;9.45;;
28519;SDS011;15732;48.534;20.382;2022-11-27T08:33:50;25.88;;;9.57;;
28519;SDS011;15732;48.534;20.382;2022-11-27T08:36:17;24.75;;;10.00;;
28519;SDS011;15732;48.534;20.382;2022-11-27T08:38:45;23.00;;;9.40;;
28519;SDS011;15732;48.534;20.382;2022-11-27T08:41:16;21.10;;;8.43;;
28519;SDS011;15732;48.534;20.382;2022-11-27T08:43:47;18.73;;;8.55;;
28519;SDS011;15732;48.534;20.382;2022-11-27T08:46:14;23.30;;;8.77;;
28519;SDS011;15732;48.534;20.382;2022-11-27T08:48:41;28.50;;;10.07;;
28519;SDS011;15732;48.534;20.382;2022-11-27T08:51:13;15.00;;;8.07;;
28519;SDS011;15732;48.534;20.382;2022-11-27T08:53:44;20.05;;;8.98;;
28519;SDS011;15732;48.534;20.382;2022-11-27T08:56:16;19.20;;;8.45;;
28519;SDS011;15732;48.534;20.382;2022-11-27T08:58:44;16.80;;;8.20;;
28519;SDS011;15732;48.534;20.382;2022-11-27T09:01:17;19.65;;;7.70;;
28519;SDS011;15732;48.534;20.382;2022-11-27T09:03:51;20.70;;;8.98;;
28519;SDS011;15732;48.534;20.382;2022-11-27T09:06:20;22.92;;;8.38;;
28519;SDS011;15732;48.534;20.382;2022-11-27T09:08:49;16.77;;;8.10;;
28519;SDS011;15732;48.534;20.382;2022-11-27T09:11:17;19.90;;;8.53;;
28519;SDS011;15732;48.534;20.382;2022-11-27T09:13:45;17.17;;;7.03;;
28519;SDS011;15732;48.534;20.382;2022-11-27T09:16:14;16.58;;;8.23;;
28519;SDS011;15732;48.534;20.382;2022-11-27T09:18:43;18.45;;;9.00;;
28519;SDS011;15732;48.534;20.382;2022-11-27T09:21:11;23.77;;;8.63;;
28519;SDS011;15732;48.534;20.382;2022-11-27T09:23:44;26.10;;;7.90;;
28519;SDS011;15732;48.534;20.382;2022-11-27T09:26:15;20.00;;;9.32;;
28519;SDS011;15732;48.534;20.382;2022-11-27T09:28:42;17.17;;;7.97;;
28519;SDS011;15732;48.534;20.382;2022-11-27T09:31:14;29.35;;;8.27;;
28519;SDS011;15732;48.534;20.382;2022-11-27T09:33:41;13.23;;;7.10;;
28519;SDS011;15732;48.534;20.382;2022-11-27T09:36:10;18.10;;;8.05;;
28519;SDS011;15732;48.534;20.382;2022-11-27T09:38:47;15.75;;;6.55;;
28519;SDS011;15732;48.534;20.382;2022-11-27T09:41:31;16.40;;;5.85;;
28519;SDS011;15732;48.534;20.382;2022-11-27T09:46:49;9.80;;;3.90;;
28519;SDS011;15732;48.534;20.382;2022-11-27T09:49:18;8.02;;;3.85;;
28519;SDS011;15732;48.534;20.382;2022-11-27T09:52:09;12.13;;;4.20;;
28519;SDS011;15732;48.534;20.382;2022-11-27T09:54:49;14.23;;;6.22;;
28519;SDS011;15732;48.534;20.382;2022-11-27T09:57:33;16.42;;;6.53;;
28519;SDS011;15732;48.534;20.382;2022-11-27T10:00:21;14.68;;;6.47;;
28519;SDS011;15732;48.534;20.382;2022-11-27T10:02:53;15.00;;;5.40;;
28519;SDS011;15732;48.534;20.382;2022-11-27T10:07:58;15.37;;;5.43;;
28519;SDS011;15732;48.534;20.382;2022-11-27T10:20:10;11.52;;;4.50;;
28519;SDS011;15732;48.534;20.382;2022-11-27T10:23:20;9.25;;;3.97;;
28519;SDS011;15732;48.534;20.382;2022-11-27T10:26:25;12.98;;;4.65;;
28519;SDS011;15732;48.534;20.382;2022-11-27T10:29:02;9.82;;;3.78;;
28519;SDS011;15732;48.534;20.382;2022-11-27T10:31:49;5.90;;;2.75;;
28519;SDS011;15732;48.534;20.382;2022-11-27T10:34:46;11.18;;;3.78;;
28519;SDS011;15732;48.534;20.382;2022-11-27T10:37:20;8.88;;;3.72;;
28519;SDS011;15732;48.534;20.382;2022-11-27T10:42:36;9.98;;;4.57;;
28519;SDS011;15732;48.534;20.382;2022-11-27T10:48:11;11.80;;;3.88;;
28519;SDS011;15732;48.534;20.382;2022-11-27T10:50:42;8.38;;;3.42;;
28519;SDS011;15732;48.534;20.382;2022-11-27T10:53:32;7.97;;;2.95;;
28519;SDS011;15732;48.534;20.382;2022-11-27T10:58:39;8.50;;;3.20;;
28519;SDS011;15732;48.534;20.382;2022-11-27T11:01:11;7.68;;;3.15;;
28519;SDS011;15732;48.534;20.382;2022-11-27T11:04:10;10.52;;;3.83;;
28519;SDS011;15732;48.534;20.382;2022-11-27T11:06:44;6.32;;;3.35;;
28519;SDS011;15732;48.534;20.382;2022-11-27T11:11:46;7.13;;;3.47;;
28519;SDS011;15732;48.534;20.382;2022-11-27T11:14:18;15.50;;;4.93;;
28519;SDS011;15732;48.534;20.382;2022-11-27T11:16:50;15.07;;;5.28;;
28519;SDS011;15732;48.534;20.382;2022-11-27T11:19:27;8.87;;;3.77;;
28519;SDS011;15732;48.534;20.382;2022-11-27T11:21:59;12.23;;;3.95;;
28519;SDS011;15732;48.534;20.382;2022-11-27T11:24:34;11.80;;;3.22;;
28519;SDS011;15732;48.534;20.382;2022-11-27T11:27:05;11.50;;;3.72;;
28519;SDS011;15732;48.534;20.382;2022-11-27T11:29:46;11.65;;;4.82;;
28519;SDS011;15732;48.534;20.382;2022-11-27T11:34:46;8.75;;;4.50;;
28519;SDS011;15732;48.534;20.382;2022-11-27T11:37:35;7.57;;;3.25;;
28519;SDS011;15732;48.534;20.382;2022-11-27T11:43:01;7.78;;;3.50;;
28519;SDS011;15732;48.534;20.382;2022-11-27T11:45:50;9.40;;;3.88;;
28519;SDS011;15732;48.534;20.382;2022-11-27T11:48:22;13.75;;;4.63;;
28519;SDS011;15732;48.534;20.382;2022-11-27T11:50:58;13.25;;;3.55;;
28519;SDS011;15732;48.534;20.382;2022-11-27T11:53:31;7.03;;;3.63;;
28519;SDS011;15732;48.534;20.382;2022-11-27T12:01:56;13.90;;;4.22;;
28519;SDS011;15732;48.534;20.382;2022-11-27T12:10:21;11.30;;;2.88;;
28519;SDS011;15732;48.534;20.382;2022-11-27T12:24:59;6.80;;;3.03;;
28519;SDS011;15732;48.534;20.382;2022-11-27T12:30:53;12.10;;;5.05;;
28519;SDS011;15732;48.534;20.382;2022-11-27T12:33:50;13.25;;;3.50;;
28519;SDS011;15732;48.534;20.382;2022-11-27T12:39:43;8.10;;;2.88;;
28519;SDS011;15732;48.534;20.382;2022-11-27T12:43:06;5.60;;;2.20;;
28519;SDS011;15732;48.534;20.382;2022-11-27T12:45:30;7.10;;;3.78;;
28519;SDS011;15732;48.534;20.382;2022-11-27T12:48:20;11.88;;;4.30;;
28519;SDS011;15732;48.534;20.382;2022-11-27T12:50:57;10.77;;;3.15;;
28519;SDS011;15732;48.534;20.382;2022-11-27T12:53:59;12.65;;;4.63;;
28519;SDS011;15732;48.534;20.382;2022-11-27T12:56:59;20.92;;;9.38;;
28519;SDS011;15732;48.534;20.382;2022-11-27T12:59:34;9.80;;;4.57;;
28519;SDS011;15732;48.534;20.382;2022-11-27T13:05:18;13.05;;;3.83;;
28519;SDS011;15732;48.534;20.382;2022-11-27T13:15:44;7.70;;;3.13;;
28519;SDS011;15732;48.534;20.382;2022-11-27T13:18:18;11.95;;;3.72;;
28519;SDS011;15732;48.534;20.382;2022-11-27T13:21:01;7.60;;;3.15;;
28519;SDS011;15732;48.534;20.382;2022-11-27T13:23:33;8.02;;;2.92;;
28519;SDS011;15732;48.534;20.382;2022-11-27T13:26:05;5.38;;;2.88;;
28519;SDS011;15732;48.534;20.382;2022-11-27T13:31:08;4.05;;;1.70;;
28519;SDS011;15732;48.534;20.382;2022-11-27T13:33:50;6.22;;;3.53;;
28519;SDS011;15732;48.534;20.382;2022-11-27T13:36:23;6.05;;;3.20;;
28519;SDS011;15732;48.534;20.382;2022-11-27T13:39:05;5.43;;;2.47;;
28519;SDS011;15732;48.534;20.382;2022-11-27T13:41:57;6.47;;;3.08;;
28519;SDS011;15732;48.534;20.382;2022-11-27T13:44:38;7.00;;;2.47;;
28519;SDS011;15732;48.534;20.382;2022-11-27T13:47:09;11.55;;;3.78;;
28519;SDS011;15732;48.534;20.382;2022-11-27T13:49:43;5.95;;;2.47;;
28519;SDS011;15732;48.534;20.382;2022-11-27T13:52:16;6.88;;;2.95;;
28519;SDS011;15732;48.534;20.382;2022-11-27T13:54:54;8.23;;;3.72;;
28519;SDS011;15732;48.534;20.382;2022-11-27T13:57:23;9.82;;;3.78;;
28519;SDS011;15732;48.534;20.382;2022-11-27T14:00:04;4.07;;;1.88;;
28519;SDS011;15732;48.534;20.382;2022-11-27T14:05:09;7.47;;;3.38;;
28519;SDS011;15732;48.534;20.382;2022-11-27T14:07:41;8.43;;;3.78;;
28519;SDS011;15732;48.534;20.382;2022-11-27T14:10:13;6.28;;;2.75;;
28519;SDS011;15732;48.534;20.382;2022-11-27T14:12:50;11.93;;;3.65;;
28519;SDS011;15732;48.534;20.382;2022-11-27T14:15:28;4.93;;;2.63;;
28519;SDS011;15732;48.534;20.382;2022-11-27T14:18:05;16.25;;;4.03;;
28519;SDS011;15732;48.534;20.382;2022-11-27T14:20:49;6.45;;;2.85;;
28519;SDS011;15732;48.534;20.382;2022-11-27T14:28:40;11.90;;;4.05;;
28519;SDS011;15732;48.534;20.382;2022-11-27T14:34:26;7.72;;;3.30;;
28519;SDS011;15732;48.534;20.382;2022-11-27T14:37:19;9.07;;;3.00;;
28519;SDS011;15732;48.534;20.382;2022-11-27T14:39:47;3.47;;;2.05;;
28519;SDS011;15732;48.534;20.382;2022-11-27T14:42:21;8.85;;;3.67;;
28519;SDS011;15732;48.534;20.382;2022-11-27T14:47:45;8.60;;;3.40;;
28519;SDS011;15732;48.534;20.382;2022-11-27T14:50:14;12.13;;;2.92;;
28519;SDS011;15732;48.534;20.382;2022-11-27T14:52:49;10.68;;;3.70;;
28519;SDS011;15732;48.534;20.382;2022-11-27T14:55:23;11.63;;;4.07;;
28519;SDS011;15732;48.534;20.382;2022-11-27T14:57:51;7.78;;;2.85;;
28519;SDS011;15732;48.534;20.382;2022-11-27T15:00:23;10.85;;;3.40;;
28519;SDS011;15732;48.534;20.382;2022-11-27T15:02:54;14.63;;;7.22;;
28519;SDS011;15732;48.534;20.382;2022-11-27T15:05:59;22.23;;;7.57;;
28519;SDS011;15732;48.534;20.382;2022-11-27T15:08:28;19.20;;;7.68;;
28519;SDS011;15732;48.534;20.382;2022-11-27T15:11:00;19.73;;;7.00;;
28519;SDS011;15732;48.534;20.382;2022-11-27T15:13:30;17.83;;;8.63;;
28519;SDS011;15732;48.534;20.382;2022-11-27T15:16:06;24.08;;;11.00;;
28519;SDS011;15732;48.534;20.382;2022-11-27T15:18:48;44.40;;;14.13;;
28519;SDS011;15732;48.534;20.382;2022-11-27T15:21:21;39.88;;;17.52;;
28519;SDS011;15732;48.534;20.382;2022-11-27T15:23:54;36.78;;;17.58;;
28519;SDS011;15732;48.534;20.382;2022-11-27T15:26:28;61.10;;;21.37;;
28519;SDS011;15732;48.534;20.382;2022-11-27T15:28:58;56.42;;;20.48;;
28519;SDS011;15732;48.534;20.382;2022-11-27T15:36:22;37.45;;;16.58;;
28519;SDS011;15732;48.534;20.382;2022-11-27T15:38:49;46.40;;;15.15;;
28519;SDS011;15732;48.534;20.382;2022-11-27T15:41:26;22.50;;;9.98;;
28519;SDS011;15732;48.534;20.382;2022-11-27T15:43:57;22.52;;;8.05;;
28519;SDS011;15732;48.534;20.382;2022-11-27T15:46:29;12.85;;;6.82;;
28519;SDS011;15732;48.534;20.382;2022-11-27T15:48:59;15.20;;;5.75;;
28519;SDS011;15732;48.534;20.382;2022-11-27T15:51:27;12.27;;;5.07;;
28519;SDS011;15732;48.534;20.382;2022-11-27T15:53:58;9.45;;;4.50;;
28519;SDS011;15732;48.534;20.382;2022-11-27T15:56:29;13.15;;;4.40;;
28519;SDS011;15732;48.534;20.382;2022-11-27T15:58:56;10.35;;;5.22;;
28519;SDS011;15732;48.534;20.382;2022-11-27T16:01:23;12.85;;;4.10;;
28519;SDS011;15732;48.534;20.382;2022-11-27T16:03:50;7.82;;;2.88;;
28519;SDS011;15732;48.534;20.382;2022-11-27T16:06:21;8.68;;;4.32;;
28519;SDS011;15732;48.534;20.382;2022-11-27T16:08:59;9.15;;;4.45;;
28519;SDS011;15732;48.534;20.382;2022-11-27T16:11:28;14.95;;;5.38;;
28519;SDS011;15732;48.534;20.382;2022-11-27T16:13:56;16.73;;;7.63;;
28519;SDS011;15732;48.534;20.382;2022-11-27T16:16:23;18.73;;;7.97;;
28519;SDS011;15732;48.534;20.382;2022-11-27T16:18:55;18.08;;;6.53;;
28519;SDS011;15732;48.534;20.382;2022-11-27T16:21:26;21.27;;;9.02;;
28519;SDS011;15732;48.534;20.382;2022-11-27T16:24:01;15.38;;;6.78;;
28519;SDS011;15732;48.534;20.382;2022-11-27T16:26:30;11.88;;;5.80;;
28519;SDS011;15732;48.534;20.382;2022-11-27T16:28:58;17.75;;;7.15;;
28519;SDS011;15732;48.534;20.382;2022-11-27T16:31:29;15.63;;;6.07;;
28519;SDS011;15732;48.534;20.382;2022-11-27T16:33:59;11.20;;;6.18;;
28519;SDS011;15732;48.534;20.382;2022-11-27T16:36:27;14.02;;;6.40;;
28519;SDS011;15732;48.534;20.382;2022-11-27T16:38:54;17.35;;;6.38;;
28519;SDS011;15732;48.534;20.382;2022-11-27T16:41:22;20.30;;;7.03;;
28519;SDS011;15732;48.534;20.382;2022-11-27T16:43:53;26.27;;;10.40;;
28519;SDS011;15732;48.534;20.382;2022-11-27T16:46:26;22.33;;;9.13;;
28519;SDS011;15732;48.534;20.382;2022-11-27T16:48:58;14.35;;;6.10;;
28519;SDS011;15732;48.534;20.382;2022-11-27T16:51:27;27.17;;;9.20;;
28519;SDS011;15732;48.534;20.382;2022-11-27T16:53:56;28.10;;;13.30;;
28519;SDS011;15732;48.534;20.382;2022-11-27T16:56:24;27.77;;;9.30;;
28519;SDS011;15732;48.534;20.382;2022-11-27T16:58:52;22.60;;;10.35;;
28519;SDS011;15732;48.534;20.382;2022-11-27T17:01:21;27.50;;;10.68;;
28519;SDS011;15732;48.534;20.382;2022-11-27T17:03:56;19.67;;;8.43;;